• Join FlightAware (Why Join?)
  • Login
  • US Flag 
04:11AM EDT


 

Airport Tracker/Info


-or-


 

Live Flight TrackerFlight Track Log ✈ AIP5009 ✈ 26-Oct-2013 ✈ KMSO - KBIL

Flight Track Log - Related Links

Times and Time Zones

All times are in EDT time to prevent confusion due to time zone crossing. See the AIP5009 flight status page for this flight to view local times or setup timezone preferences in your user account.

Time Position Orientation Groundspeed Altitude Reporting Facility
EDT Latitude Longitude Course Direction KTS MPH feet Rate Location/Type
04:43AM 46.9281 -114.1117 106° East 150 173 4,200  Level Salt Lake Center
04:44AM 46.9094 -114.1428 229° Southwest 146 168 7,300 2,760 Climbing Salt Lake Center
04:45AM 46.8889 -114.0886 119° Southeast 159 183 9,800 2,640 Climbing Salt Lake Center
04:46AM 46.8775 -114.0175 103° East 167 192 12,600 2,400 Climbing Salt Lake Center
04:47AM 46.8694 -113.9467 99° East 183 211 14,600 1,920 Climbing Salt Lake Center
04:48AM 46.8211 -113.5455 106° East  Level Estimated
04:48AM 46.8539 -113.8731 107° East 191 220 16,500  Level Salt Lake Center
04:49AM 46.8319 -113.7997 114° Southeast 196 226 17,900 1,500 Climbing Salt Lake Center
04:50AM 46.8239 -113.7169 98° East 208 239 19,500 1,440 Climbing Salt Lake Center
04:51AM 46.8086 -113.6372 106° East 207 238 20,900 1,320 Climbing Salt Lake Center
04:52AM 46.7950 -113.5536 103° East 211 243 22,200 1,020 Climbing Salt Lake Center
04:53AM 46.7792 -113.4672 105° East 221 254 23,000 420 Climbing Salt Lake Center
04:54AM 46.7628 -113.3669 103° East 253 291 23,100 -60 Climbing Salt Lake Center
04:55AM 46.7442 -113.2628 105° East 267 307 22,900 -60 Descending Salt Lake Center
04:56AM 46.7283 -113.1589 102° East 264 304 23,000  Climbing Salt Lake Center
04:57AM 46.7153 -113.0539 100° East 264 304 23,000  Level Salt Lake Center
04:58AM 46.7175 -112.9469 88° East 265 305 23,000  Level Salt Lake Center
04:59AM 46.6922 -112.8494 111° Southeast 264 304 23,000  Level Salt Lake Center
05:00AM 46.6653 -112.7508 112° Southeast 264 304 23,000  Level Salt Lake Center
05:01AM 46.6536 -112.6458 99° East 263 303 23,000  Level Salt Lake Center
05:02AM 46.6308 -112.5444 108° East 265 305 23,000 -60 Level Salt Lake Center
05:03AM 46.5967 -112.4486 117° Southeast 267 307 22,900  Descending Salt Lake Center
05:04AM 46.5767 -112.3464 106° East 265 305 23,000 60 Climbing Salt Lake Center
05:05AM 46.5539 -112.2475 108° East 260 299 23,100  Climbing Salt Lake Center
05:06AM 46.5339 -112.1472 106° East 260 299 23,100  Level Salt Lake Center
05:07AM 46.5125 -112.0494 108° East 255 293 23,100  Level Salt Lake Center
05:08AM 46.5100 -111.9447 92° East 260 299 23,100  Level Salt Lake Center
05:09AM 46.4675 -111.8500 123° Southeast 266 306 23,100 -60 Level Salt Lake Center
05:10AM 46.4450 -111.7586 110° East 258 297 23,000 -60 Descending Salt Lake Center
05:11AM 46.4264 -111.6542 104° East 261 300 23,000 -60 Level Salt Lake Center
05:12AM 46.4081 -111.5511 104° East 260 299 22,900 -60 Descending Salt Lake Center
05:13AM 46.3875 -111.4469 106° East 264 304 22,900 -60 Level Salt Lake Center
05:14AM 46.3681 -111.3450 105° East 260 299 22,800 -120 Descending Salt Lake Center
05:15AM 46.3686 -111.2381 90° East 267 307 22,700  Descending Salt Lake Center
05:16AM 46.3500 -111.1442 106° East 261 300 22,900 60 Climbing Salt Lake Center
05:17AM 46.3342 -111.0394 102° East 261 300 22,900  Level Salt Lake Center
05:18AM 46.3153 -110.9472 106° East 266 306 22,900  Level Salt Lake Center
05:19AM 46.3028 -110.8453 100° East 259 298 22,900  Level Salt Lake Center
05:20AM 46.2742 -110.7486 113° Southeast 262 302 22,900  Level Salt Lake Center
05:21AM 46.2439 -110.6500 114° Southeast 267 307 22,900  Level Salt Lake Center
05:22AM 46.2356 -110.5436 96° East 267 307 22,900  Level Salt Lake Center
05:23AM 46.2286 -110.4397 95° East 263 303 22,900 -540 Level Salt Lake Center
05:24AM 46.1969 -110.3344 113° Southeast 282 325 21,900 -900 Descending Salt Lake Center
05:25AM 46.1683 -110.2247 111° Southeast 291 335 21,200 -900 Descending Salt Lake Center
05:26AM 46.1450 -110.1139 107° East 290 334 20,200 -1,140 Descending Salt Lake Center
05:27AM 46.1208 -109.9994 107° East 295 339 19,000 -1,140 Descending Salt Lake Center
05:28AM 46.0975 -109.8847 106° East 298 343 18,000 -900 Descending Salt Lake Center
05:29AM 46.0736 -109.7600 105° East 298 343 17,300 -840 Descending Salt Lake Center
05:30AM 46.0533 -109.6486 105° East 293 337 16,400 -780 Descending Salt Lake Center
05:31AM 46.0308 -109.5406 107° East 286 329 15,800 -720 Descending Salt Lake Center
05:32AM 46.0108 -109.4250 104° East 281 323 15,000 -1,080 Descending Salt Lake Center
05:33AM 45.9922 -109.3139 104° East 286 329 13,700 -1,140 Descending Salt Lake Center
05:34AM 45.9728 -109.2039 104° East 286 329 12,800 -960 Descending Salt Lake Center
05:35AM 45.9511 -109.0931 106° East 290 334 11,800 -840 Descending Salt Lake Center
05:36AM 45.9419 -108.9792 97° East 292 336 11,200 -900 Descending Salt Lake Center
05:37AM 45.9178 -108.8706 108° East 292 336 10,000 -1,380 Descending Salt Lake Center
05:38AM 45.8908 -108.7614 109° East 294 338 8,500 -1,800 Descending Salt Lake Center
05:39AM 45.8636 -108.6597 111° Southeast 280 322 6,400 -1,740 Descending Salt Lake Center
05:40AM 45.8417 -108.5700 109° East 239 275 5,100 -1,020 Descending Salt Lake Center
05:41AM 45.8228 -108.5089 114° Southeast 185 213 4,400 -840 Descending Salt Lake Center
05:42AM 45.8078 -108.5461 240° Southwest 116 133 3,500 -900 Descending Salt Lake Center
05:44AM 45.8077 -108.5429 110° East  Level Estimated